Aeroporto :
LOGIN :

Iscrizione | Disclaimer

   EN    FR    IT 

 










Sommario :    VFR   VFR Marginale   IFR   IFR Intensivo   IFR Molto Intensivo
Visibilità : 
Base nubi : 
>= 8 km
>= 3000ft
5 / 8 km
1000 / 3000 ft
1500m / 5 km
500 / 1000 ft
800 / 1500m
200 / 500 ft
< 800m
< 200 ft
Simboli :   Temporali  Nebbia  Neve Forte  Precipitazioni Forti  Vento > 20 kt
SIGMETs :   Varie  Temporali  Ghiacco  Turbolenza  Onda orograficha  Ceneri Vulcaniche







- Altitudine del aeroporto : 464 ft
- Codice IATA : EVX
- Carte del aeroporto


LFOE - Evreux

ULTIMO METAR :
  • 121530Z AUTO 23004KT CAVOK 04/01 Q1013

METARs OBSOLETI :
  • 121500Z AUTO 24006KT CAVOK 06/01 Q1013
  • 121430Z AUTO 23005KT CAVOK 05/02 Q1012
  • 121400Z AUTO 27006KT 230V300 9999 SCT024 06/01 Q1012
  • 121330Z AUTO 25007KT 9999 SCT022 07/02 Q1011
  • 121300Z AUTO 26006KT 230V290 9999 SCT026 06/02 Q1011

TAF TAF LFOE
Valido dal 12 a 15 ore il 13 a 15 ore UTC


121400Z 1215/1315 20010KT 9999 FEW025 SCT030
TEMPO 1221/1224 BKN005
BECMG 1300/1303 18015G25KT BKN012
TEMPO 1303/1309 3000 RA BKN006
TEMPO 1312/1315 3000 SHRA SCT010 BKN020TCU
Nessun NOTAM noto per questo aeroporto.



MetMap, La meteo Aeronautica in un colpo d'occhio ! - Copyright ORBIFLY Dicembre 2007 - Disclaimer

ORBIFLY MET'MAP TEAM :

Programmazione e sviluppo : Alexandra Zaïnal
Concezione e sviluppo : Baudouin d'Aumeries
Co-Programmazione e sviluppo : Marc-Olivier Méhu
Supporto tecnico e logistico : Manuel Goepfert
Aiuto per la traduzione : Arnaldo La Scala

Contatto : metmap@orbifly.com




FONTI E CREDITI :

   NOAA